createdAt,value
2023-03-26T00:00:43.860Z,1.50
2023-03-26T00:05:48.325Z,1.03
2023-03-26T00:10:53.034Z,0.73
2023-03-26T00:15:56.768Z,1.13
2023-03-26T00:21:01.045Z,1.27
2023-03-26T00:26:10.933Z,1.87
2023-03-26T00:31:16.431Z,1.23
2023-03-26T00:36:20.861Z,1.10
2023-03-26T00:41:32.370Z,2.50
2023-03-26T00:46:36.613Z,2.03
2023-03-26T00:51:39.976Z,1.43
2023-03-26T00:56:44.565Z,1.77
2023-03-26T01:01:47.904Z,1.33
2023-03-26T01:06:51.695Z,1.20
2023-03-26T01:11:56.725Z,1.43
2023-03-26T01:17:02.416Z,2.37
2023-03-26T01:22:07.464Z,1.60
2023-03-26T01:27:26.024Z,2.83
2023-03-26T01:32:45.039Z,0.97
2023-03-26T01:38:02.427Z,2.50
2023-03-26T01:43:13.331Z,2.37
2023-03-26T01:48:16.959Z,1.80
2023-03-26T01:53:20.455Z,1.33
2023-03-26T01:58:32.472Z,1.20
2023-03-26T02:03:43.391Z,0.87
2023-03-26T02:08:50.900Z,1.03
2023-03-26T02:13:56.074Z,2.00
2023-03-26T02:19:00.386Z,0.97
2023-03-26T02:24:04.354Z,1.50
2023-03-26T02:29:09.910Z,2.10
2023-03-26T02:34:13.201Z,1.77
2023-03-26T02:39:17.015Z,1.77
2023-03-26T02:44:21.686Z,2.80
2023-03-26T02:49:24.805Z,2.10
2023-03-26T02:54:28.354Z,2.70
2023-03-26T02:59:33.066Z,1.27
2023-03-26T03:04:36.304Z,2.60
2023-03-26T03:09:39.585Z,3.73
2023-03-26T03:14:44.291Z,2.77
2023-03-26T03:19:48.188Z,2.43
2023-03-26T03:24:52.339Z,1.10
2023-03-26T03:29:59.043Z,3.73
2023-03-26T03:35:02.428Z,3.83
2023-03-26T03:40:14.644Z,3.07
2023-03-26T03:45:20.243Z,2.83
2023-03-26T03:50:23.593Z,3.20
2023-03-26T03:55:27.737Z,4.20
2023-03-26T04:00:32.725Z,4.60
2023-03-26T04:05:36.531Z,2.67
2023-03-26T04:10:39.820Z,3.67
2023-03-26T04:15:45.717Z,3.17
2023-03-26T04:20:49.473Z,5.20
2023-03-26T04:25:55.810Z,2.80
2023-03-26T04:31:04.975Z,2.50
2023-03-26T04:36:08.869Z,2.00
2023-03-26T04:41:13.648Z,1.00
2023-03-26T04:46:21.898Z,2.73
2023-03-26T04:51:28.206Z,1.93
2023-03-26T04:56:41.134Z,3.40
2023-03-26T05:01:46.871Z,1.87
2023-03-26T05:06:50.073Z,2.30
2023-03-26T05:11:53.430Z,1.53
2023-03-26T05:16:58.274Z,0.90
2023-03-26T05:22:01.735Z,0.83
2023-03-26T05:27:05.041Z,0.90
2023-03-26T05:32:11.062Z,2.37
2023-03-26T05:37:14.249Z,3.60
2023-03-26T05:42:17.412Z,1.73
2023-03-26T05:47:22.255Z,1.50
2023-03-26T05:52:25.678Z,2.27
2023-03-26T05:57:31.032Z,1.50
2023-03-26T06:02:36.273Z,1.20
2023-03-26T06:07:39.870Z,2.43
2023-03-26T06:12:43.193Z,1.73
2023-03-26T06:17:48.449Z,1.77
2023-03-26T06:22:51.892Z,2.53
2023-03-26T06:27:55.082Z,1.13
2023-03-26T06:33:00.463Z,1.93
2023-03-26T06:38:04.452Z,1.93
2023-03-26T06:43:10.869Z,1.50
2023-03-26T06:48:16.084Z,0.80
2023-03-26T06:53:19.387Z,1.40
2023-03-26T06:58:23.028Z,2.27
2023-03-26T07:03:27.930Z,1.27
2023-03-26T07:08:32.592Z,2.80
2023-03-26T07:13:40.783Z,4.17
2023-03-26T07:18:49.625Z,3.37
2023-03-26T07:23:54.842Z,3.30
2023-03-26T07:29:16.389Z,2.50
2023-03-26T07:34:36.091Z,2.47
2023-03-26T07:39:47.974Z,4.10
2023-03-26T07:45:01.019Z,5.23
2023-03-26T07:50:07.735Z,5.43
2023-03-26T07:55:14.814Z,5.55
2023-03-26T08:00:22.284Z,4.93
2023-03-26T08:05:30.039Z,3.15
2023-03-26T08:10:42.376Z,5.22
2023-03-26T08:15:53.778Z,5.03
2023-03-26T08:21:06.344Z,6.13
2023-03-26T08:26:18.200Z,7.22
2023-03-26T08:31:33.077Z,8.50
2023-03-26T08:36:38.039Z,8.50
2023-03-26T08:42:34.974Z,5.70
2023-03-26T08:48:17.572Z,7.45
2023-03-26T08:53:38.906Z,8.32
2023-03-26T08:59:15.321Z,6.35
2023-03-26T09:04:50.004Z,9.48
2023-03-26T09:10:17.220Z,8.88
2023-03-26T09:15:50.445Z,6.82
2023-03-26T09:21:18.684Z,6.93
2023-03-26T09:26:47.594Z,7.38
2023-03-26T09:32:24.897Z,6.78
2023-03-26T09:37:56.813Z,8.75
2023-03-26T09:43:27.160Z,7.75
2023-03-26T09:49:05.706Z,5.47
2023-03-26T09:54:39.681Z,6.25
2023-03-26T10:00:06.629Z,9.15
2023-03-26T10:05:24.542Z,8.15
2023-03-26T10:10:37.197Z,7.80
2023-03-26T10:15:58.962Z,4.82
2023-03-26T10:21:07.218Z,10.38
2023-03-26T10:26:22.978Z,6.25
2023-03-26T10:31:42.168Z,5.60
2023-03-26T10:36:54.678Z,4.78
2023-03-26T10:42:07.800Z,6.32
2023-03-26T10:47:41.668Z,8.70
2023-03-26T10:53:10.492Z,5.38
2023-03-26T10:58:23.018Z,6.65
2023-03-26T11:03:51.964Z,7.45
2023-03-26T11:09:09.198Z,5.40
2023-03-26T11:14:34.994Z,5.97
2023-03-26T11:19:53.018Z,5.57
2023-03-26T11:25:22.820Z,5.35
2023-03-26T11:30:48.926Z,6.85
2023-03-26T11:36:00.835Z,6.55
2023-03-26T11:41:13.781Z,4.43
2023-03-26T11:46:20.522Z,6.15
2023-03-26T11:51:39.668Z,5.65
2023-03-26T11:57:05.498Z,11.30
2023-03-26T12:02:26.330Z,7.10
2023-03-26T12:07:35.174Z,6.00
2023-03-26T12:12:42.015Z,10.05
2023-03-26T12:17:45.433Z,3.75
2023-03-26T12:23:00.304Z,8.30
2023-03-26T12:28:06.235Z,6.13
2023-03-26T12:33:19.413Z,5.55
2023-03-26T12:38:33.461Z,4.22
2023-03-26T12:44:46.165Z,6.30
2023-03-26T12:49:08.914Z,3.58
2023-03-26T12:54:33.316Z,2.60
2023-03-26T12:59:48.853Z,2.72
2023-03-26T13:05:07.135Z,2.47
2023-03-26T13:10:51.520Z,2.90
2023-03-26T13:16:00.604Z,4.38
2023-03-26T13:21:12.097Z,4.18
2023-03-26T13:26:36.193Z,4.13
2023-03-26T13:31:46.510Z,4.22
2023-03-26T13:37:04.167Z,4.20
2023-03-26T13:42:24.262Z,4.38
2023-03-26T13:47:30.729Z,5.53
2023-03-26T13:52:40.714Z,4.80
2023-03-26T13:57:50.757Z,3.95
2023-03-26T14:02:59.321Z,4.15
2023-03-26T14:08:05.789Z,2.35
2023-03-26T14:13:17.691Z,2.95
2023-03-26T14:18:33.438Z,3.05
2023-03-26T14:24:17.155Z,2.08
2023-03-26T14:29:56.300Z,3.33
2023-03-26T14:35:11.811Z,3.47
2023-03-26T14:40:30.790Z,2.83
2023-03-26T14:46:05.340Z,2.30
2023-03-26T14:51:28.407Z,3.67
2023-03-26T14:56:53.613Z,4.03
2023-03-26T15:02:45.135Z,4.63
2023-03-26T15:08:33.536Z,5.90
2023-03-26T15:13:59.665Z,3.77
2023-03-26T15:19:38.116Z,6.13
2023-03-26T15:25:23.532Z,5.30
2023-03-26T15:31:07.184Z,4.57
2023-03-26T15:36:44.741Z,3.97
2023-03-26T15:41:56.840Z,4.33
2023-03-26T15:47:18.689Z,5.00
2023-03-26T15:52:31.447Z,2.77
2023-03-26T15:57:41.412Z,3.83
2023-03-26T16:02:54.736Z,4.10
2023-03-26T16:08:08.247Z,3.43
2023-03-26T16:13:37.817Z,4.60
2023-03-26T16:18:43.740Z,4.33
2023-03-26T16:23:58.201Z,6.27
2023-03-26T16:29:19.852Z,5.77
2023-03-26T16:34:29.755Z,4.00
2023-03-26T16:39:44.240Z,5.90
2023-03-26T16:44:58.583Z,5.03
2023-03-26T16:50:15.420Z,5.27
2023-03-26T16:55:34.541Z,5.87
2023-03-26T17:00:52.493Z,2.93
2023-03-26T17:06:06.525Z,2.90
2023-03-26T17:11:23.133Z,3.13
2023-03-26T17:16:43.984Z,5.00
2023-03-26T17:22:18.848Z,3.07
2023-03-26T17:27:34.328Z,5.17
2023-03-26T17:32:58.924Z,3.47
2023-03-26T17:38:02.772Z,7.00
2023-03-26T17:43:11.285Z,2.27
2023-03-26T17:48:20.083Z,3.67
2023-03-26T17:53:28.750Z,3.47
2023-03-26T17:58:38.437Z,3.00
2023-03-26T18:03:50.657Z,4.53
2023-03-26T18:09:10.941Z,2.83
2023-03-26T18:14:44.686Z,2.00
2023-03-26T18:19:51.387Z,4.40
2023-03-26T18:25:00.014Z,2.83
2023-03-26T18:30:16.778Z,2.13
2023-03-26T18:35:24.325Z,2.83
2023-03-26T18:40:31.985Z,1.60
2023-03-26T18:45:40.578Z,1.93
2023-03-26T18:50:44.163Z,3.17
2023-03-26T18:55:50.539Z,3.57
2023-03-26T19:00:59.910Z,3.40
2023-03-26T19:06:08.358Z,2.13
2023-03-26T19:11:13.513Z,2.50
2023-03-26T19:16:24.401Z,2.23
2023-03-26T19:21:28.494Z,3.30
2023-03-26T19:26:32.923Z,4.57
2023-03-26T19:31:40.353Z,2.33
2023-03-26T19:36:58.303Z,2.83
2023-03-26T19:42:09.059Z,4.67
2023-03-26T19:47:19.916Z,3.57
2023-03-26T19:52:26.217Z,2.97
2023-03-26T19:57:32.116Z,4.97
2023-03-26T20:02:42.053Z,4.17
2023-03-26T20:07:45.342Z,5.90
2023-03-26T20:12:48.975Z,4.83
2023-03-26T20:17:54.660Z,4.47
2023-03-26T20:22:58.538Z,6.03
2023-03-26T20:28:01.789Z,6.57
2023-03-26T20:33:12.380Z,4.27
2023-03-26T20:38:17.096Z,3.47
2023-03-26T20:43:24.156Z,5.00
2023-03-26T20:48:28.735Z,5.33
2023-03-26T20:53:31.934Z,7.73
2023-03-26T20:58:35.410Z,4.23
2023-03-26T21:03:40.856Z,25.13
2023-03-26T21:08:46.606Z,4.47
2023-03-26T21:13:57.007Z,2.57
2023-03-26T21:19:03.096Z,3.97
2023-03-26T21:24:13.390Z,5.90
2023-03-26T21:29:17.296Z,4.90
2023-03-26T21:34:22.524Z,3.63
2023-03-26T21:39:26.366Z,4.03
2023-03-26T21:44:30.373Z,3.83
2023-03-26T21:49:37.333Z,7.13
2023-03-26T21:54:43.338Z,4.30
2023-03-26T21:59:52.991Z,4.57
2023-03-26T22:05:02.204Z,7.23
2023-03-26T22:10:06.620Z,6.70
2023-03-26T22:15:13.756Z,6.60
2023-03-26T22:20:19.801Z,5.73
2023-03-26T22:25:24.781Z,4.83
2023-03-26T22:30:28.496Z,7.03
2023-03-26T22:35:33.046Z,6.33
2023-03-26T22:40:36.426Z,6.30
2023-03-26T22:45:39.629Z,6.43
2023-03-26T22:50:44.948Z,5.03
2023-03-26T22:55:48.223Z,4.90
2023-03-26T23:00:53.094Z,4.50
2023-03-26T23:05:59.136Z,8.80
2023-03-26T23:11:02.343Z,7.77
2023-03-26T23:16:06.853Z,12.23
2023-03-26T23:21:16.872Z,12.07
2023-03-26T23:26:20.219Z,9.93
2023-03-26T23:31:25.450Z,9.57
2023-03-26T23:36:30.115Z,11.00
2023-03-26T23:41:33.810Z,12.13
2023-03-26T23:46:37.363Z,6.67
2023-03-26T23:51:42.219Z,12.20
2023-03-26T23:56:45.455Z,9.60
